Terminal Aerodrome Forecast
Issued by NWS

Home | Current Version | Previous Version | Text Only | Print | Product List | Glossary On
Versions: 1 2 3 4 5 6 7 8 9 10 11 12 13 14 15 16 17
856
FTUS41 KAKQ 061128
TAFPHF
TAF
KPHF 061128Z 0612/0712 07007KT 6SM -RA BR OVC070
     FM061400 08011KT 3SM RA BR OVC030
     FM061600 08012G20KT 2SM RA BR OVC012
     FM061800 08010KT 1 1/2SM RA BR OVC007
     FM070200 36008KT 3SM BR OVC005=

USA.gov is the U.S. government's official web portal to all federal, state and local government web resources and services.